MT WASHINGTON (MTW)

Elevation: 920' · LOS ANGELES R basin · Operator: Los Angeles County Fire Dept

Query executed Thursday at 4:58:29   clock

Provisional data, subject to change.
Select a sensor type for a plot of data.

Earlier

Date   /   Time   RAIN     TEMP     REL HUM     BAR PRE     FUEL MS     FUEL TP     WIND SP     WIND DR     PEAK WS     PEAK WD     SOLAR R     BAT VOL    
(PST)INCHES   DEG F   %   INCHES   %   DEG F   MPH   DEG   MPH   DEG   W/M^2   VOLTS  
02/10/2016 05:00 -- -- -- -- -- -- -- -- -- -- -- --
02/10/2016 06:00 -- -- -- -- -- -- -- -- -- -- -- --
02/10/2016 07:00 -- -- -- -- -- -- -- -- -- -- -- --
02/10/2016 08:00 1.49 77 13 -- 3 74 -- -- -- -- 208.00 13.5
02/10/2016 09:00 1.49 84 12 -- 3 83 -- -- -- -- 501.00 13.4
02/10/2016 10:00 1.49 86 10 -- 3 87 -- -- -- -- 645.00 13.3
02/10/2016 11:00 1.49 87 9 -- 3 92 -- -- -- -- 726.00 13.3
02/10/2016 12:00 1.49 91 8 -- 3 103 -- -- -- -- 725.00 13.3
02/10/2016 13:00 1.49 89 8 -- 2 107 -- -- -- -- 663.00 13.3
02/10/2016 14:00 1.49 90 8 -- 2 106 -- -- -- -- 534.00 13.4
02/10/2016 15:00 1.49 87 13 -- 2 90 -- -- -- -- 316.00 13.0
02/10/2016 16:00 1.49 79 14 -- 2 75 -- -- -- -- 142.00 12.6
02/10/2016 17:00 1.49 72 18 -- 3 70 -- -- -- -- 8.00 12.5
02/10/2016 18:00 1.49 72 19 -- 3 68 -- -- -- -- 0.00 12.5
02/10/2016 19:00 1.49 70 21 -- 3 67 -- -- -- -- 0.00 12.5
02/10/2016 20:00 1.49 69 22 -- 3 66 -- -- -- -- 0.00 12.4
02/10/2016 21:00 1.49 68 22 -- 3 65 -- -- -- -- 0.00 12.4
02/10/2016 22:00 1.49 67 22 -- 3 64 -- -- -- -- 0.00 12.4
02/10/2016 23:00 1.49 69 19 -- 3 66 -- -- -- -- 0.00 12.4
02/11/2016 00:00 1.49 65 23 -- 3 62 -- -- -- -- 0.00 12.3
02/11/2016 01:00 1.49 67 20 -- 3 64 -- -- -- -- 0.00 12.3
02/11/2016 02:00 1.49 68 18 -- 3 64 -- -- -- -- 0.00 12.3
02/11/2016 03:00 1.49 66 20 -- 3 63 -- -- -- -- 0.00 12.2
02/11/2016 04:00 -- -- -- -- -- -- -- -- -- -- -- --

Later | Latest

Warning! This data is preliminary and subject to revision.

Show MTW Map | 24 Hours MTW Data | Plot all MTW Sensors | Daily MTW Data | MTW Info